Terminal Aerodrome Forecast
Issued by NWS

Home | Current Version | Previous Version | Text Only | Print | Product List | Glossary On
Versions: 1 2 3 4 5 6 7 8 9 10 11 12 13 14 15 16 17 18 19 20
000
FTUS44 KBMX 302107 AAA
TAFEET
TAF AMD
KEET 302107Z 3021/3118 18010G20KT P6SM -RA VCTS SCT045CB BKN150
      TEMPO 3021/3023 20012G25KT 3SM TSRA OVC025CB
     FM310700 24005KT P6SM SHRA BKN030
     FM311200 25003KT P6SM SCT050=

USA.gov is the U.S. government's official web portal to all federal, state and local government web resources and services.